Time;durP1;ratioP1;P1;durP2;ratioP2;P2;SDS_P1;SDS_P2;PMS_P1;PMS_P2;Temp;Humidity;BMP_temperature;BMP_pressure;BME280_temperature;BME280_humidity;BME280_pressure;Samples;Min_cycle;Max_cycle;Signal;HPM_P1;HPM_P2
2022/04/17 00:00:41;;;;;;;;;;;7.30;99.90;;;;;;5053692;28;19925;-60
2022/04/17 00:03:07;;;;;;;;;;;7.20;99.90;;;;;;5054274;28;19986;-62
2022/04/17 00:05:36;;;;;;;;;;;7.10;99.90;;;;;;5053526;28;19929;-60
2022/04/17 00:08:03;;;;;;;;;;;7.10;99.90;;;;;;5054368;28;20073;-59
2022/04/17 00:10:30;;;;;;;;;;;7.00;99.90;;;;;;5055393;28;20404;-60
2022/04/17 00:12:57;;;;;;;;;;;7.00;99.90;;;;;;5055010;28;19924;-60
2022/04/17 00:15:24;;;;;;;;;;;6.80;99.90;;;;;;5055079;28;19931;-60
2022/04/17 00:17:51;;;;;;;;;;;6.80;99.90;;;;;;5052253;28;19925;-60
2022/04/17 00:20:18;;;;;;;;;;;6.80;99.90;;;;;;5054732;28;19925;-61
2022/04/17 00:22:46;;;;;;;;;;;6.80;99.90;;;;;;5055756;28;19978;-61
2022/04/17 00:25:14;;;;;;;;;;;6.90;99.90;;;;;;5056260;28;20347;-60
2022/04/17 00:27:40;;;;;;;;;;;6.90;99.90;;;;;;5054469;28;19925;-60
2022/04/17 00:30:08;;;;;;;;;;;6.70;99.90;;;;;;5052147;28;20391;-59
2022/04/17 00:32:36;;;;;;;;;;;6.60;99.90;;;;;;5054376;28;19925;-60
2022/04/17 00:35:03;;;;;;;;;;;6.50;99.90;;;;;;5065035;28;19932;-60
2022/04/17 00:37:30;;;;;;;;;;;6.60;99.90;;;;;;5056538;28;20332;-58
2022/04/17 00:39:58;;;;;;;;;;;6.60;99.90;;;;;;5054358;28;19930;-60
2022/04/17 00:42:25;;;;;;;;;;;6.40;99.90;;;;;;5061222;28;19994;-60
2022/04/17 00:44:51;;;;;;;;;;;6.20;99.90;;;;;;5078846;28;19950;-59
2022/04/17 00:47:20;;;;;;;;;;;6.10;99.90;;;;;;5087381;28;20002;-59
2022/04/17 00:49:47;;;;;;;;;;;6.00;99.90;;;;;;5083842;28;19924;-60
2022/04/17 00:52:14;;;;;;;;;;;6.00;99.90;;;;;;5085089;28;19929;-59
2022/04/17 00:54:43;;;;;;;;;;;6.00;99.90;;;;;;5060075;28;19925;-58
2022/04/17 00:57:11;;;;;;;;;;;6.00;99.90;;;;;;5043852;28;20023;-57
2022/04/17 00:59:38;;;;;;;;;;;5.80;99.90;;;;;;5051780;28;19978;-58
2022/04/17 01:02:06;;;;;;;;;;;5.80;99.90;;;;;;5054825;28;20382;-59
2022/04/17 01:04:33;;;;;;;;;;;5.70;99.90;;;;;;5053317;28;19931;-58
2022/04/17 01:07:00;;;;;;;;;;;5.80;99.90;;;;;;5061838;28;20018;-58
2022/04/17 01:09:27;;;;;;;;;;;5.90;99.90;;;;;;5055827;28;19925;-58
2022/04/17 01:11:54;;;;;;;;;;;5.90;99.90;;;;;;5052428;28;19928;-59
2022/04/17 01:14:22;;;;;;;;;;;5.80;99.90;;;;;;5052486;28;19990;-59
2022/04/17 01:16:49;;;;;;;;;;;5.80;99.90;;;;;;5049603;28;19924;-58
2022/04/17 01:19:15;;;;;;;;;;;5.80;99.90;;;;;;5053097;28;19924;-59
2022/04/17 01:21:46;;;;;;;;;;;5.80;99.90;;;;;;5052594;28;19970;-59
2022/04/17 01:26:58;;;;;;;;;;;5.80;99.90;;;;;;5055435;28;19928;-59
2022/04/17 01:29:26;;;;;;;;;;;5.80;99.90;;;;;;5051538;28;20320;-59
2022/04/17 01:31:53;;;;;;;;;;;5.70;99.90;;;;;;5052221;28;20386;-59
2022/04/17 01:34:20;;;;;;;;;;;5.70;99.90;;;;;;5048193;28;19931;-60
2022/04/17 01:36:49;;;;;;;;;;;5.90;99.90;;;;;;5049253;28;19971;-59
2022/04/17 01:39:16;;;;;;;;;;;5.90;99.90;;;;;;5060337;28;19928;-58
2022/04/17 01:41:44;;;;;;;;;;;5.80;99.90;;;;;;5054833;28;19924;-59
2022/04/17 01:44:10;;;;;;;;;;;5.70;99.90;;;;;;5051380;28;20445;-59
2022/04/17 01:46:37;;;;;;;;;;;5.90;99.90;;;;;;5049750;28;19928;-59
2022/04/17 01:49:04;;;;;;;;;;;5.80;99.90;;;;;;5052983;28;19933;-60
2022/04/17 01:51:34;;;;;;;;;;;5.80;99.90;;;;;;5064498;28;19924;-59
2022/04/17 01:54:02;;;;;;;;;;;5.70;99.90;;;;;;5076160;28;19932;-58
2022/04/17 01:56:29;;;;;;;;;;;5.70;99.90;;;;;;5061278;28;19929;-59
2022/04/17 01:58:56;;;;;;;;;;;5.80;99.90;;;;;;5054879;28;20321;-61
2022/04/17 02:01:23;;;;;;;;;;;5.90;99.90;;;;;;5051181;28;19929;-59
2022/04/17 02:03:49;;;;;;;;;;;5.90;99.90;;;;;;5053678;28;19925;-59
2022/04/17 02:06:16;;;;;;;;;;;5.80;99.90;;;;;;5055385;28;20156;-59
2022/04/17 02:08:44;;;;;;;;;;;5.80;99.90;;;;;;5055980;28;20433;-58
2022/04/17 02:11:13;;;;;;;;;;;5.70;99.90;;;;;;5052093;28;20421;-59
2022/04/17 02:13:40;;;;;;;;;;;5.70;99.90;;;;;;5055730;28;20314;-58
2022/04/17 02:16:07;;;;;;;;;;;5.60;99.90;;;;;;5059206;28;19970;-59
2022/04/17 02:18:34;;;;;;;;;;;5.60;99.90;;;;;;5076168;28;19955;-59
2022/04/17 02:21:01;;;;;;;;;;;5.50;99.90;;;;;;5076720;28;19978;-59
2022/04/17 02:23:27;;;;;;;;;;;5.50;99.90;;;;;;5076318;28;19932;-59
2022/04/17 02:25:54;;;;;;;;;;;5.50;99.90;;;;;;5051582;28;19925;-59
2022/04/17 02:28:22;;;;;;;;;;;5.50;99.90;;;;;;5052313;28;19933;-60
2022/04/17 02:30:49;;;;;;;;;;;5.90;99.90;;;;;;5053445;28;19924;-61
2022/04/17 02:33:16;;;;;;;;;;;5.80;99.90;;;;;;5053589;28;19978;-58
2022/04/17 02:35:42;;;;;;;;;;;5.80;99.90;;;;;;5053477;28;19925;-59
2022/04/17 02:38:09;;;;;;;;;;;5.70;99.90;;;;;;5046521;28;19971;-61
2022/04/17 02:40:36;;;;;;;;;;;5.60;99.90;;;;;;5055966;28;19986;-59
2022/04/17 02:43:03;;;;;;;;;;;5.50;99.90;;;;;;5070316;28;19930;-59
2022/04/17 02:45:31;;;;;;;;;;;5.50;99.90;;;;;;5072829;28;19928;-59
2022/04/17 02:47:58;;;;;;;;;;;5.60;99.90;;;;;;5065563;28;19991;-59
2022/04/17 02:50:25;;;;;;;;;;;5.60;99.90;;;;;;5054517;28;19925;-58
2022/04/17 02:52:54;;;;;;;;;;;5.60;99.90;;;;;;5054731;28;19935;-60
2022/04/17 02:55:20;;;;;;;;;;;5.50;99.90;;;;;;5062314;28;19929;-59
2022/04/17 02:57:48;;;;;;;;;;;5.30;99.90;;;;;;5047400;28;19925;-59
2022/04/17 03:00:15;;;;;;;;;;;5.20;99.90;;;;;;5056374;28;20309;-59
2022/04/17 03:05:37;;;;;;;;;;;5.00;99.90;;;;;;5049871;28;20002;-59
2022/04/17 03:08:05;;;;;;;;;;;5.10;99.90;;;;;;5051008;28;19931;-59
2022/04/17 03:10:32;;;;;;;;;;;5.10;99.90;;;;;;5053802;28;19932;-59
2022/04/17 03:12:58;;;;;;;;;;;4.90;99.90;;;;;;5053977;28;19924;-59
2022/04/17 03:15:25;;;;;;;;;;;5.00;99.90;;;;;;5053898;28;20337;-58
2022/04/17 03:17:54;;;;;;;;;;;4.90;99.90;;;;;;5053744;28;19928;-59
2022/04/17 03:20:24;;;;;;;;;;;4.90;99.90;;;;;;5053143;28;19971;-58
2022/04/17 03:22:51;;;;;;;;;;;5.20;99.90;;;;;;5053122;28;20345;-59
2022/04/17 03:25:17;;;;;;;;;;;5.30;99.90;;;;;;5054810;28;19925;-59
2022/04/17 03:27:46;;;;;;;;;;;5.20;99.90;;;;;;5052736;28;19947;-60
2022/04/17 03:30:14;;;;;;;;;;;5.00;99.90;;;;;;5049974;28;19968;-59
2022/04/17 03:32:41;;;;;;;;;;;4.80;99.90;;;;;;5049287;28;20020;-59
2022/04/17 03:35:14;;;;;;;;;;;4.90;99.90;;;;;;5050300;28;20298;-61
2022/04/17 03:37:43;;;;;;;;;;;5.10;99.90;;;;;;5054722;28;19925;-60
2022/04/17 03:40:10;;;;;;;;;;;5.10;99.90;;;;;;5053692;28;19924;-59
2022/04/17 03:42:37;;;;;;;;;;;4.90;99.90;;;;;;5049094;28;19956;-59
2022/04/17 03:45:05;;;;;;;;;;;4.70;99.90;;;;;;5051946;28;19933;-59
2022/04/17 03:47:32;;;;;;;;;;;4.50;99.90;;;;;;5053041;28;19925;-59
2022/04/17 03:49:59;;;;;;;;;;;4.50;99.90;;;;;;5053131;28;19984;-60
2022/04/17 03:52:27;;;;;;;;;;;4.50;99.90;;;;;;5053770;28;20395;-59
2022/04/17 03:54:54;;;;;;;;;;;4.60;99.90;;;;;;5054122;28;19929;-59
2022/04/17 03:57:20;;;;;;;;;;;4.60;99.90;;;;;;5052457;28;19924;-60
2022/04/17 03:59:47;;;;;;;;;;;4.60;99.90;;;;;;5052897;28;20383;-60
2022/04/17 04:02:14;;;;;;;;;;;4.50;99.90;;;;;;5053537;28;19928;-60
2022/04/17 04:04:41;;;;;;;;;;;4.50;99.90;;;;;;5051819;28;20470;-60
2022/04/17 04:07:07;;;;;;;;;;;4.50;99.90;;;;;;5046465;28;19929;-59
2022/04/17 04:09:35;;;;;;;;;;;4.50;99.90;;;;;;5053251;28;19928;-60
2022/04/17 04:12:02;;;;;;;;;;;4.40;99.90;;;;;;5054088;28;20391;-59
2022/04/17 04:14:29;;;;;;;;;;;4.30;99.90;;;;;;5052273;28;19925;-60
2022/04/17 04:16:56;;;;;;;;;;;4.40;99.90;;;;;;5053060;28;20357;-59
2022/04/17 04:19:22;;;;;;;;;;;4.50;99.90;;;;;;5052686;28;19936;-59
2022/04/17 04:21:49;;;;;;;;;;;4.50;99.90;;;;;;5052598;28;19929;-60
2022/04/17 04:24:17;;;;;;;;;;;4.30;99.90;;;;;;5054933;28;20002;-59
2022/04/17 04:28:32;;;;;;;;;;;4.20;99.90;;;;;;5064452;28;19925;-60
2022/04/17 04:29:31;;;;;;;;;;;4.40;99.90;;;;;;5060604;28;19979;-59
2022/04/17 04:31:58;;;;;;;;;;;4.50;99.90;;;;;;5049633;28;20011;-58
2022/04/17 04:34:25;;;;;;;;;;;4.30;99.90;;;;;;5050210;28;20325;-59
2022/04/17 04:36:52;;;;;;;;;;;4.30;99.90;;;;;;5050293;28;19951;-60
2022/04/17 04:39:18;;;;;;;;;;;4.20;99.90;;;;;;5053243;28;19924;-59
2022/04/17 04:41:46;;;;;;;;;;;4.10;99.90;;;;;;5052116;28;20354;-59
2022/04/17 04:44:13;;;;;;;;;;;4.10;99.90;;;;;;5051015;28;19928;-59
2022/04/17 04:46:39;;;;;;;;;;;4.10;99.90;;;;;;5045514;28;19929;-59
2022/04/17 04:51:50;;;;;;;;;;;4.60;99.90;;;;;;5052607;28;19986;-60
2022/04/17 04:54:17;;;;;;;;;;;4.70;99.90;;;;;;5050849;28;19925;-59
2022/04/17 04:56:43;;;;;;;;;;;4.90;99.90;;;;;;5052895;28;19982;-59
2022/04/17 04:59:11;;;;;;;;;;;4.90;99.90;;;;;;5055658;28;20049;-60
2022/04/17 05:01:38;;;;;;;;;;;4.80;99.90;;;;;;5051041;28;19925;-59
2022/04/17 05:04:05;;;;;;;;;;;4.70;99.90;;;;;;5050065;28;19925;-59
2022/04/17 05:06:32;;;;;;;;;;;4.70;99.90;;;;;;5046120;28;19929;-60
2022/04/17 05:08:59;;;;;;;;;;;5.00;99.90;;;;;;5048678;28;19924;-59
2022/04/17 05:11:28;;;;;;;;;;;5.30;99.90;;;;;;5049480;28;19967;-60
2022/04/17 05:13:55;;;;;;;;;;;5.30;99.90;;;;;;5049948;28;19928;-59
2022/04/17 05:16:24;;;;;;;;;;;5.50;99.90;;;;;;5049392;28;19925;-59
2022/04/17 05:19:00;;;;;;;;;;;5.70;99.90;;;;;;5051213;28;19925;-59
2022/04/17 05:21:31;;;;;;;;;;;5.70;99.90;;;;;;5049813;28;19971;-58
2022/04/17 05:23:58;;;;;;;;;;;5.60;99.90;;;;;;5050516;28;19925;-59
2022/04/17 05:26:25;;;;;;;;;;;5.70;99.90;;;;;;5047909;28;19933;-59
2022/04/17 05:28:52;;;;;;;;;;;6.60;99.90;;;;;;5049803;28;19925;-60
2022/04/17 05:31:19;;;;;;;;;;;8.50;99.90;;;;;;5048747;28;19936;-60
2022/04/17 05:33:47;;;;;;;;;;;10.70;99.90;;;;;;5049507;28;19951;-58
2022/04/17 05:36:13;;;;;;;;;;;12.80;99.90;;;;;;5050570;28;19925;-59
2022/04/17 05:38:41;;;;;;;;;;;14.70;98.80;;;;;;5046307;28;19996;-60
2022/04/17 05:41:09;;;;;;;;;;;16.40;95.20;;;;;;5047629;28;19931;-61
2022/04/17 05:43:37;;;;;;;;;;;17.70;92.60;;;;;;5048472;28;20002;-61
2022/04/17 05:46:04;;;;;;;;;;;18.80;91.00;;;;;;5048417;28;19941;-61
2022/04/17 05:48:31;;;;;;;;;;;18.90;85.60;;;;;;5048395;28;20386;-62
2022/04/17 05:51:00;;;;;;;;;;;18.70;86.10;;;;;;5048809;28;19925;-60
2022/04/17 05:53:26;;;;;;;;;;;19.70;85.40;;;;;;5049536;28;19925;-61
2022/04/17 05:55:53;;;;;;;;;;;20.60;82.50;;;;;;5048986;28;19924;-61
2022/04/17 05:58:20;;;;;;;;;;;21.30;79.10;;;;;;5046663;28;19975;-62
2022/04/17 06:00:47;;;;;;;;;;;21.80;77.00;;;;;;5047651;28;19959;-62
2022/04/17 06:03:15;;;;;;;;;;;21.90;73.40;;;;;;5042312;28;19932;-62
2022/04/17 06:05:42;;;;;;;;;;;22.10;73.60;;;;;;5047145;28;19932;-61
2022/04/17 06:08:10;;;;;;;;;;;22.40;72.10;;;;;;5049803;28;20299;-61
2022/04/17 06:10:37;;;;;;;;;;;22.60;73.60;;;;;;5050588;28;19936;-63
2022/04/17 06:13:04;;;;;;;;;;;22.30;69.40;;;;;;5047975;28;19932;-61
2022/04/17 06:15:31;;;;;;;;;;;23.10;66.70;;;;;;5049095;28;19924;-61
2022/04/17 06:17:59;;;;;;;;;;;23.90;66.90;;;;;;5048202;28;19925;-61
2022/04/17 06:20:25;;;;;;;;;;;23.30;66.80;;;;;;5049159;28;20031;-62
2022/04/17 06:22:52;;;;;;;;;;;22.30;65.70;;;;;;5044745;28;19924;-62
2022/04/17 06:25:20;;;;;;;;;;;22.70;66.80;;;;;;5049660;28;20409;-61
2022/04/17 06:27:48;;;;;;;;;;;22.80;65.60;;;;;;5058132;28;19928;-61
2022/04/17 06:30:15;;;;;;;;;;;21.20;65.40;;;;;;5046298;28;19929;-61
2022/04/17 06:32:43;;;;;;;;;;;20.60;66.60;;;;;;5049393;28;19933;-62
2022/04/17 06:35:10;;;;;;;;;;;20.60;67.10;;;;;;5049176;28;20325;-61
2022/04/17 06:37:46;;;;;;;;;;;22.00;65.10;;;;;;5052142;28;19929;-62
2022/04/17 06:40:15;;;;;;;;;;;21.50;65.80;;;;;;5052951;28;19990;-62
2022/04/17 06:42:43;;;;;;;;;;;21.50;66.60;;;;;;5052449;28;19925;-62
2022/04/17 06:45:10;;;;;;;;;;;22.30;64.80;;;;;;5053609;28;19925;-62
2022/04/17 06:47:37;;;;;;;;;;;23.50;62.20;;;;;;5052077;28;20024;-62
2022/04/17 06:50:04;;;;;;;;;;;24.60;59.80;;;;;;5053165;28;19933;-62
2022/04/17 06:52:31;;;;;;;;;;;23.60;61.50;;;;;;5053286;28;19983;-62
2022/04/17 06:54:58;;;;;;;;;;;23.90;60.80;;;;;;5053312;28;20011;-62
2022/04/17 06:57:27;;;;;;;;;;;23.60;60.70;;;;;;5053536;28;19925;-62
2022/04/17 06:59:56;;;;;;;;;;;24.70;58.60;;;;;;5048701;28;19931;-63
2022/04/17 07:02:22;;;;;;;;;;;25.20;57.60;;;;;;5053084;28;19971;-61
2022/04/17 07:04:49;;;;;;;;;;;23.90;58.60;;;;;;5052123;28;19924;-62
2022/04/17 07:07:17;;;;;;;;;;;25.00;57.30;;;;;;5051103;28;19933;-61
2022/04/17 07:09:43;;;;;;;;;;;25.70;55.90;;;;;;5053028;28;19925;-61
2022/04/17 07:12:11;;;;;;;;;;;24.60;56.40;;;;;;5055077;28;19986;-62
2022/04/17 07:14:37;;;;;;;;;;;25.00;57.70;;;;;;5071666;28;19936;-63
2022/04/17 07:17:06;;;;;;;;;;;24.00;58.10;;;;;;5051857;28;19925;-62
2022/04/17 07:19:33;;;;;;;;;;;24.40;57.70;;;;;;5053112;28;19924;-63
2022/04/17 07:22:00;;;;;;;;;;;26.20;56.30;;;;;;5052822;28;20000;-61
2022/04/17 07:24:26;;;;;;;;;;;26.30;55.30;;;;;;5052876;28;19929;-62
2022/04/17 07:26:54;;;;;;;;;;;25.90;55.20;;;;;;5048851;28;19986;-61
2022/04/17 07:29:22;;;;;;;;;;;25.30;55.10;;;;;;5052775;28;19975;-61
2022/04/17 07:31:49;;;;;;;;;;;25.00;55.40;;;;;;5052576;28;19925;-61
2022/04/17 07:34:19;;;;;;;;;;;23.80;57.30;;;;;;5055126;28;20310;-61
2022/04/17 07:36:47;;;;;;;;;;;24.80;57.20;;;;;;5061663;28;20031;-62
2022/04/17 07:39:16;;;;;;;;;;;24.60;55.40;;;;;;5055579;28;19931;-61
2022/04/17 07:41:43;;;;;;;;;;;25.60;54.70;;;;;;5051966;28;19925;-62
2022/04/17 07:44:11;;;;;;;;;;;26.20;55.00;;;;;;5052978;28;19925;-62
2022/04/17 07:46:38;;;;;;;;;;;25.90;55.90;;;;;;5063642;28;19936;-62
2022/04/17 07:49:05;;;;;;;;;;;25.70;54.50;;;;;;5051747;28;19925;-62
2022/04/17 07:51:33;;;;;;;;;;;23.20;57.40;;;;;;5051761;28;19925;-62
2022/04/17 07:54:00;;;;;;;;;;;22.90;58.50;;;;;;5051226;28;19940;-63
2022/04/17 07:56:26;;;;;;;;;;;21.80;60.30;;;;;;5054066;28;19974;-62
2022/04/17 07:58:54;;;;;;;;;;;20.50;62.20;;;;;;5072098;28;19932;-62
2022/04/17 08:01:21;;;;;;;;;;;21.60;62.30;;;;;;5071562;28;20458;-63
2022/04/17 08:03:47;;;;;;;;;;;22.80;59.60;;;;;;5052482;28;19924;-63
2022/04/17 08:06:16;;;;;;;;;;;21.50;60.80;;;;;;5050992;28;19986;-62
2022/04/17 08:08:45;;;;;;;;;;;22.40;63.00;;;;;;5050892;28;19929;-63
2022/04/17 08:11:12;;;;;;;;;;;23.70;59.10;;;;;;5048852;28;20016;-63
2022/04/17 08:13:39;;;;;;;;;;;24.80;56.60;;;;;;5050727;28;19971;-63
2022/04/17 08:16:06;;;;;;;;;;;24.20;58.00;;;;;;5050044;28;19971;-63
2022/04/17 08:18:33;;;;;;;;;;;22.70;58.40;;;;;;5033111;28;19990;-62
2022/04/17 08:21:00;;;;;;;;;;;23.00;58.70;;;;;;5050814;28;20440;-62
2022/04/17 08:23:27;;;;;;;;;;;23.30;58.60;;;;;;5047600;28;19932;-62
2022/04/17 08:25:55;;;;;;;;;;;23.00;58.40;;;;;;5051115;28;20298;-62
2022/04/17 08:28:22;;;;;;;;;;;22.90;57.70;;;;;;5050759;28;19970;-63
2022/04/17 08:30:49;;;;;;;;;;;22.20;57.60;;;;;;5051463;28;19987;-61
2022/04/17 08:33:16;;;;;;;;;;;22.60;59.20;;;;;;5050862;28;20015;-61
2022/04/17 08:35:44;;;;;;;;;;;22.70;59.30;;;;;;5050909;28;19999;-62
2022/04/17 08:38:11;;;;;;;;;;;22.00;58.90;;;;;;5051075;28;19924;-63
2022/04/17 08:40:38;;;;;;;;;;;22.70;58.10;;;;;;5053653;28;19933;-62
2022/04/17 08:43:07;;;;;;;;;;;23.70;57.60;;;;;;5049683;28;20027;-61
2022/04/17 08:45:34;;;;;;;;;;;23.90;58.40;;;;;;5050834;28;19925;-64
2022/04/17 08:48:00;;;;;;;;;;;22.10;57.70;;;;;;5050597;28;19928;-64
2022/04/17 08:50:27;;;;;;;;;;;21.60;58.80;;;;;;5049677;28;19929;-62
2022/04/17 08:52:55;;;;;;;;;;;22.80;57.50;;;;;;5051795;28;19925;-62
2022/04/17 08:55:22;;;;;;;;;;;22.70;56.80;;;;;;5050671;28;19925;-62
2022/04/17 08:57:49;;;;;;;;;;;21.60;57.50;;;;;;5050584;28;19925;-63
2022/04/17 09:00:19;;;;;;;;;;;21.60;59.70;;;;;;5047014;28;19929;-62
2022/04/17 09:02:46;;;;;;;;;;;23.30;57.40;;;;;;5049069;28;19939;-63
2022/04/17 09:05:13;;;;;;;;;;;23.00;56.60;;;;;;5050980;28;19979;-63
2022/04/17 09:07:41;;;;;;;;;;;22.50;56.10;;;;;;5045928;28;19929;-63
2022/04/17 09:10:08;;;;;;;;;;;21.80;56.50;;;;;;5047425;28;19928;-61
2022/04/17 09:12:35;;;;;;;;;;;23.30;55.60;;;;;;5045516;28;20012;-62
2022/04/17 09:15:01;;;;;;;;;;;23.50;56.40;;;;;;5047148;28;19979;-64
2022/04/17 09:17:30;;;;;;;;;;;24.60;56.10;;;;;;5048591;28;19978;-63
2022/04/17 09:19:57;;;;;;;;;;;25.50;53.80;;;;;;5054090;28;20324;-65
2022/04/17 09:22:24;;;;;;;;;;;24.70;53.60;;;;;;5050353;28;20036;-63
2022/04/17 09:24:50;;;;;;;;;;;23.00;55.90;;;;;;5050956;28;19924;-62
2022/04/17 09:27:17;;;;;;;;;;;22.80;56.60;;;;;;5068339;28;19924;-64
2022/04/17 09:29:44;;;;;;;;;;;23.40;55.90;;;;;;5052725;28;19978;-63
2022/04/17 09:32:30;;;;;;;;;;;23.60;57.10;;;;;;5050409;28;20405;-62
2022/04/17 09:35:15;;;;;;;;;;;23.60;54.70;;;;;;5047032;28;19929;-63
2022/04/17 09:37:43;;;;;;;;;;;23.90;55.90;;;;;;5050307;28;19928;-64
2022/04/17 09:40:11;;;;;;;;;;;23.30;55.60;;;;;;5050084;28;19979;-62
2022/04/17 09:42:37;;;;;;;;;;;22.60;56.20;;;;;;5050074;28;20410;-62
2022/04/17 09:45:07;;;;;;;;;;;22.80;55.80;;;;;;5050061;28;20379;-63
2022/04/17 09:47:34;;;;;;;;;;;22.60;56.70;;;;;;5050418;28;19925;-62
2022/04/17 09:50:01;;;;;;;;;;;22.50;55.20;;;;;;5050034;28;19955;-62
2022/04/17 09:52:31;;;;;;;;;;;22.80;53.80;;;;;;5048703;28;20351;-63
2022/04/17 09:55:00;;;;;;;;;;;22.60;54.90;;;;;;5049567;28;19968;-64
2022/04/17 09:57:28;;;;;;;;;;;22.90;56.90;;;;;;5050101;28;20003;-62
2022/04/17 09:59:55;;;;;;;;;;;23.00;56.00;;;;;;5049436;28;20371;-63
2022/04/17 10:02:23;;;;;;;;;;;22.00;56.70;;;;;;5060052;28;19925;-63
2022/04/17 10:04:50;;;;;;;;;;;21.90;54.50;;;;;;5053872;28;19990;-61
2022/04/17 10:07:18;;;;;;;;;;;22.40;54.30;;;;;;5070785;28;19993;-61
2022/04/17 10:09:46;;;;;;;;;;;21.60;58.10;;;;;;5054855;28;19924;-61
2022/04/17 10:12:19;;;;;;;;;;;22.00;55.60;;;;;;5055772;28;19990;-61
2022/04/17 10:14:47;;;;;;;;;;;22.40;54.60;;;;;;5055519;28;19972;-64
2022/04/17 10:17:14;;;;;;;;;;;21.70;55.10;;;;;;5049336;28;20353;-60
2022/04/17 10:19:42;;;;;;;;;;;22.20;54.50;;;;;;5048763;28;19929;-62
2022/04/17 10:22:10;;;;;;;;;;;22.00;55.40;;;;;;5049336;28;20009;-63
2022/04/17 10:24:37;;;;;;;;;;;22.50;55.60;;;;;;5048378;28;19924;-63
2022/04/17 10:27:06;;;;;;;;;;;21.60;55.50;;;;;;5058562;28;19964;-62
2022/04/17 10:29:36;;;;;;;;;;;22.00;55.30;;;;;;5060751;28;19978;-63
2022/04/17 10:32:21;;;;;;;;;;;22.50;57.80;;;;;;5052762;28;20383;-62
2022/04/17 10:34:58;;;;;;;;;;;22.40;55.20;;;;;;5053386;28;20275;-61
2022/04/17 10:37:41;;;;;;;;;;;22.30;53.90;;;;;;5052484;28;19932;-61
2022/04/17 10:40:10;;;;;;;;;;;22.40;55.70;;;;;;5035969;28;19979;-61
2022/04/17 10:42:54;;;;;;;;;;;22.60;54.00;;;;;;5052388;28;20004;-61
2022/04/17 10:45:22;;;;;;;;;;;22.40;56.40;;;;;;5051389;28;19925;-62
2022/04/17 10:48:01;;;;;;;;;;;21.90;54.70;;;;;;5052040;28;19947;-62
2022/04/17 10:50:30;;;;;;;;;;;21.80;55.60;;;;;;5053794;28;19978;-62
2022/04/17 10:52:56;;;;;;;;;;;21.00;57.90;;;;;;5057749;28;19947;-61
2022/04/17 10:55:23;;;;;;;;;;;19.60;57.80;;;;;;5051954;28;20383;-62
2022/04/17 10:57:50;;;;;;;;;;;18.70;61.40;;;;;;5051973;28;19951;-62
2022/04/17 11:00:28;;;;;;;;;;;18.20;63.60;;;;;;5051542;28;19928;-61
2022/04/17 11:02:59;;;;;;;;;;;17.80;63.90;;;;;;5045922;28;20415;-62
2022/04/17 11:06:07;;;;;;;;;;;17.40;63.60;;;;;;5053193;28;19972;-61
2022/04/17 11:08:23;;;;;;;;;;;17.30;66.80;;;;;;5056597;28;19925;-61
2022/04/17 11:10:52;;;;;;;;;;;17.50;66.40;;;;;;5054518;28;19976;-61
2022/04/17 11:13:19;;;;;;;;;;;17.30;62.40;;;;;;5072774;28;19928;-61
2022/04/17 11:15:52;;;;;;;;;;;17.20;67.20;;;;;;5070597;28;19925;-64
2022/04/17 11:18:23;;;;;;;;;;;17.10;65.70;;;;;;5072772;28;19925;-61
2022/04/17 11:20:52;;;;;;;;;;;17.20;65.40;;;;;;5062470;28;19979;-61
2022/04/17 11:23:34;;;;;;;;;;;17.00;63.10;;;;;;5068730;28;20362;-61
2022/04/17 11:26:01;;;;;;;;;;;17.50;65.10;;;;;;5058872;28;19925;-61
2022/04/17 11:28:34;;;;;;;;;;;17.70;68.00;;;;;;5051609;28;19936;-61
2022/04/17 11:31:02;;;;;;;;;;;17.60;65.10;;;;;;5051691;28;19932;-60
2022/04/17 11:33:29;;;;;;;;;;;17.60;64.40;;;;;;5051788;28;19978;-61
2022/04/17 11:35:57;;;;;;;;;;;17.70;67.20;;;;;;5052007;28;19986;-62
2022/04/17 11:38:23;;;;;;;;;;;17.60;63.80;;;;;;5050749;28;20445;-61
2022/04/17 11:40:50;;;;;;;;;;;17.50;64.60;;;;;;5051185;28;19986;-62
2022/04/17 11:43:18;;;;;;;;;;;17.40;66.90;;;;;;5051395;28;19986;-61
2022/04/17 11:45:45;;;;;;;;;;;17.50;66.70;;;;;;5051789;28;19944;-62
2022/04/17 11:48:14;;;;;;;;;;;17.60;64.70;;;;;;5054028;28;19925;-60
2022/04/17 11:50:42;;;;;;;;;;;17.40;62.70;;;;;;5053594;28;19924;-60
2022/04/17 11:53:11;;;;;;;;;;;17.00;65.00;;;;;;5050502;28;20372;-63
2022/04/17 11:55:38;;;;;;;;;;;17.00;63.30;;;;;;5050621;28;20407;-62
2022/04/17 11:58:09;;;;;;;;;;;16.90;64.70;;;;;;5049325;28;20296;-62
2022/04/17 12:00:36;;;;;;;;;;;17.30;66.90;;;;;;5050593;28;19929;-62
2022/04/17 12:03:03;;;;;;;;;;;17.40;63.00;;;;;;5050088;28;20345;-60
2022/04/17 12:05:32;;;;;;;;;;;17.60;65.50;;;;;;5050475;28;19951;-60
2022/04/17 12:08:01;;;;;;;;;;;17.50;62.90;;;;;;5050267;28;20398;-62
2022/04/17 12:10:28;;;;;;;;;;;17.60;63.30;;;;;;5050436;28;19932;-61
2022/04/17 12:12:54;;;;;;;;;;;17.40;62.10;;;;;;5049280;28;19978;-60
2022/04/17 12:15:22;;;;;;;;;;;17.20;61.20;;;;;;5047312;28;20332;-61
2022/04/17 12:17:57;;;;;;;;;;;17.50;62.30;;;;;;5054177;28;20393;-60
2022/04/17 12:20:25;;;;;;;;;;;17.70;60.60;;;;;;5046005;28;20355;-62
2022/04/17 12:22:53;;;;;;;;;;;18.00;64.00;;;;;;5050081;28;19928;-61
2022/04/17 12:25:21;;;;;;;;;;;17.60;62.30;;;;;;5050065;28;19931;-60
2022/04/17 12:27:47;;;;;;;;;;;17.40;62.30;;;;;;5050289;28;19925;-61
2022/04/17 12:30:18;;;;;;;;;;;17.20;62.70;;;;;;5051083;28;19932;-61
2022/04/17 12:32:45;;;;;;;;;;;17.00;62.80;;;;;;5045656;28;19925;-60
2022/04/17 12:35:13;;;;;;;;;;;16.90;64.30;;;;;;5049770;28;19978;-59
2022/04/17 12:37:40;;;;;;;;;;;17.00;65.80;;;;;;5050168;28;19941;-62
2022/04/17 12:40:09;;;;;;;;;;;17.30;62.90;;;;;;5050076;28;19936;-62
2022/04/17 12:42:36;;;;;;;;;;;17.40;62.60;;;;;;5045629;28;20452;-61
2022/04/17 12:45:03;;;;;;;;;;;16.80;62.70;;;;;;5052191;28;19967;-61
2022/04/17 12:47:29;;;;;;;;;;;16.80;66.10;;;;;;5048328;28;19983;-63
2022/04/17 12:50:02;;;;;;;;;;;17.10;64.80;;;;;;5049729;28;20353;-62
2022/04/17 12:52:29;;;;;;;;;;;17.00;64.20;;;;;;5046363;28;19978;-61
2022/04/17 12:54:56;;;;;;;;;;;16.80;66.80;;;;;;5048144;28;20732;-61
2022/04/17 12:57:24;;;;;;;;;;;16.90;63.40;;;;;;5049058;28;19925;-61
2022/04/17 12:59:52;;;;;;;;;;;16.70;62.40;;;;;;5049561;28;19925;-61
2022/04/17 13:02:20;;;;;;;;;;;16.90;63.90;;;;;;5049302;28;19982;-62
2022/04/17 13:04:52;;;;;;;;;;;16.90;65.10;;;;;;5046843;28;20472;-61
2022/04/17 13:07:19;;;;;;;;;;;16.70;60.40;;;;;;5049570;28;19933;-61
2022/04/17 13:09:49;;;;;;;;;;;16.40;65.00;;;;;;5050989;28;19940;-61
2022/04/17 13:12:31;;;;;;;;;;;16.60;62.20;;;;;;5050492;28;19968;-60
2022/04/17 13:14:58;;;;;;;;;;;16.70;63.30;;;;;;5051004;28;19929;-61
2022/04/17 13:17:25;;;;;;;;;;;16.80;62.30;;;;;;5051044;28;19925;-62
2022/04/17 13:19:52;;;;;;;;;;;17.10;61.00;;;;;;5049643;28;19925;-61
2022/04/17 13:22:19;;;;;;;;;;;16.90;59.20;;;;;;5051590;28;20314;-62
2022/04/17 13:24:46;;;;;;;;;;;17.10;64.10;;;;;;5059578;28;19990;-61
2022/04/17 13:27:13;;;;;;;;;;;17.50;61.30;;;;;;5050579;28;19925;-61
2022/04/17 13:29:44;;;;;;;;;;;17.50;62.20;;;;;;5051049;28;20001;-61
2022/04/17 13:32:11;;;;;;;;;;;17.10;60.10;;;;;;5076027;22;20019;-52
2022/04/17 13:34:38;;;;;;;;;;;17.10;59.80;;;;;;5057944;28;19964;-49
2022/04/17 13:39:49;;;;;;;;;;;17.30;60.00;;;;;;5055018;28;19927;-50
2022/04/17 13:42:16;;;;;;;;;;;17.30;61.70;;;;;;5071222;28;19925;-49
2022/04/17 13:44:44;;;;;;;;;;;16.90;60.50;;;;;;5070219;28;19924;-51
2022/04/17 13:47:11;;;;;;;;;;;17.00;63.10;;;;;;5072904;28;20420;-49
2022/04/17 13:49:38;;;;;;;;;;;17.00;61.10;;;;;;5075685;28;19928;-49
2022/04/17 13:52:05;;;;;;;;;;;17.20;59.40;;;;;;5059280;28;19970;-50
2022/04/17 13:54:33;;;;;;;;;;;17.50;59.00;;;;;;5056052;28;19994;-50
2022/04/17 13:56:59;;;;;;;;;;;17.70;58.60;;;;;;5055541;28;19925;-49
2022/04/17 13:59:26;;;;;;;;;;;17.70;57.70;;;;;;5073947;28;19928;-49
2022/04/17 14:01:54;;;;;;;;;;;17.60;56.90;;;;;;5064408;28;19925;-49
2022/04/17 14:04:21;;;;;;;;;;;17.70;58.40;;;;;;5070472;28;19925;-51
2022/04/17 14:09:51;;;;;;;;;;;17.80;58.70;;;;;;5045557;28;19935;-48
2022/04/17 14:12:17;;;;;;;;;;;17.70;58.40;;;;;;5065517;28;19924;-50
2022/04/17 14:14:44;;;;;;;;;;;17.60;57.10;;;;;;5075333;28;19971;-50
2022/04/17 14:17:12;;;;;;;;;;;17.60;58.50;;;;;;5075437;28;19928;-49
2022/04/17 14:19:39;;;;;;;;;;;17.50;57.10;;;;;;5075363;28;20524;-49
2022/04/17 14:22:06;;;;;;;;;;;17.50;56.70;;;;;;5061405;28;19924;-50
2022/04/17 14:24:32;;;;;;;;;;;17.20;57.50;;;;;;5052556;28;19970;-49
2022/04/17 14:26:59;;;;;;;;;;;17.40;58.50;;;;;;5055314;28;20283;-49
2022/04/17 14:29:26;;;;;;;;;;;17.60;56.40;;;;;;5054992;28;19980;-50
2022/04/17 14:31:53;;;;;;;;;;;17.50;56.50;;;;;;5060099;28;19971;-49
2022/04/17 14:34:21;;;;;;;;;;;17.50;56.60;;;;;;5054216;28;20448;-49
2022/04/17 14:36:47;;;;;;;;;;;17.20;56.40;;;;;;5054323;28;19986;-48
2022/04/17 14:39:14;;;;;;;;;;;17.20;57.00;;;;;;5053023;28;20472;-50